Burnham-on-Sea, United Kingdom
Current Conditions -  °F | °C
As of 2:50 AM on Thursday 27 Nov 2014 (Local Time) from EGGD Reporting Station
Moderate Fog Moderate Fog  
Wind Chill: 43°   Ceiling: Unl
Heat Index: 43°   Visibility: 0.31mi
Dew Point: 43°   Wind: 0mph
Humidity: 100%   Direction: NA
Pressure: 29.68"   Gusts: NA
Location:  51.23°N, 3°W
Report Text: EGGD 270250Z 00000KT 0500 R27/1000 FG VV/// 06/06 Q1005
Loading
Personal Weather Stations






























Interactive Weather Map New forecast layout! Learn more

10-Day Weather Forecast

Advertisements
Track Severe Weather on mobile